FJDG

Details ICAO FJDG
Name DIEGO GARCIA NSF
Region British Indian Ocean Territory
Timezone Indian/Chagos (UTC+6.0)
Plans Departing 34
Arriving 49
Stats Elevation 9 ft / 3 m (AMSL)
Location -7.313268° 72.411090°
Runways 1
Magnetic Variation 6.661° W
Sunrise 2017-12-14 00:50:04 UTC / 2017-12-14 06:50:04 Local
Sunset 2017-12-14 13:22:37 UTC / 2017-12-14 19:22:37 Local
Advertisement - Login to hide

Runways

ID Width Length Bearing (true) Bearing (mag) Surface Threshold Offset Overrun Length
13 200 ft / 61 m 12,015 ft / 3,662 m 121.89° 128.55° Concrete 0 ft / 0 m 950 ft / 290 m
31 200 ft / 61 m 12,015 ft / 3,662 m 301.88° 308.54° Concrete 0 ft / 0 m 950 ft / 290 m

Approach Navaids

Runway Type Ident Frequency Range Bearing (true) Bearing (mag) Slope Elevation
31 Localiser INKW 109.30 MHz 18 nm / 33 km 301.84° 308.50° - 9 ft / 3 m (AMSL)
31 Glidescope INKW 109.30 MHz 10 nm / 19 km 301.89° 308.55° 3.00° 9 ft / 3 m (AMSL)

Map

Weather


0- 5 10 15 20 25 30 35+ Temperature / ° C

Clouds and Precipitation
Forecast for 2017-12-14 00:00 UTC. Updated 3 minutes ago

Ground ~20,000 ft ~40,000 ft Winds

METAR

FJDG 131855Z 07003KT 9999 FEW020 SCT250 28/25 A2987 RMK SLP112 T02750251

TAF

Not found

Frequencies

Tower 126.20 MHz TWR
Approach 118.40 MHz GND
Approach 134.10 MHz APP
Warning: Do not use this data for real-world aviation or navigation. No guarantee of current accuracy is given.